createdAt,value
2019-05-04T00:02:28.315Z,13.50
2019-05-04T00:05:24.929Z,13.50
2019-05-04T00:07:52.399Z,13.40
2019-05-04T00:10:19.543Z,13.40
2019-05-04T00:12:46.667Z,13.40
2019-05-04T00:15:14.516Z,13.50
2019-05-04T00:17:41.834Z,13.60
2019-05-04T00:20:09.294Z,13.50
2019-05-04T00:22:36.947Z,13.40
2019-05-04T00:25:05.300Z,13.40
2019-05-04T00:27:32.844Z,13.50
2019-05-04T00:29:59.724Z,13.50
2019-05-04T00:32:32.095Z,13.40
2019-05-04T00:35:07.535Z,13.40
2019-05-04T00:37:35.611Z,13.40
2019-05-04T00:40:05.201Z,13.40
2019-05-04T00:42:32.211Z,13.50
2019-05-04T00:44:59.639Z,13.40
2019-05-04T00:47:26.547Z,13.30
2019-05-04T00:49:55.122Z,13.30
2019-05-04T00:52:22.366Z,13.30
2019-05-04T00:54:49.343Z,13.40
2019-05-04T00:57:16.380Z,13.30
2019-05-04T00:59:45.145Z,13.30
2019-05-04T01:02:35.920Z,13.30
2019-05-04T01:05:05.760Z,13.30
2019-05-04T01:07:32.923Z,13.40
2019-05-04T01:09:59.892Z,13.30
2019-05-04T01:12:27.563Z,13.30
2019-05-04T01:14:55.241Z,13.30
2019-05-04T01:17:22.323Z,13.30
2019-05-04T01:19:49.415Z,13.30
2019-05-04T01:22:16.407Z,13.40
2019-05-04T01:24:44.943Z,13.30
2019-05-04T01:27:14.504Z,13.40
2019-05-04T01:29:41.723Z,13.30
2019-05-04T01:32:08.707Z,13.30
2019-05-04T01:34:41.715Z,13.20
2019-05-04T01:37:28.971Z,13.30
2019-05-04T01:39:55.199Z,13.30
2019-05-04T01:42:24.402Z,13.30
2019-05-04T01:44:51.975Z,13.20
2019-05-04T01:47:18.955Z,13.20
2019-05-04T01:49:45.831Z,13.30
2019-05-04T01:52:15.661Z,13.20
2019-05-04T01:54:45.602Z,13.20
2019-05-04T01:57:21.409Z,13.20
2019-05-04T01:59:51.248Z,13.20
2019-05-04T02:02:18.367Z,13.20
2019-05-04T02:04:46.187Z,13.20
2019-05-04T02:07:14.846Z,13.30
2019-05-04T02:09:44.466Z,13.20
2019-05-04T02:12:11.384Z,13.10
2019-05-04T02:14:38.375Z,13.10
2019-05-04T02:17:05.546Z,13.10
2019-05-04T02:19:35.027Z,13.10
2019-05-04T02:22:07.988Z,13.10
2019-05-04T02:24:36.611Z,13.10
2019-05-04T02:27:41.547Z,13.00
2019-05-04T02:30:19.979Z,13.00
2019-05-04T02:32:47.304Z,12.90
2019-05-04T02:35:16.743Z,13.00
2019-05-04T02:37:55.700Z,13.00
2019-05-04T02:40:50.189Z,13.00
2019-05-04T02:43:07.725Z,13.00
2019-05-04T02:45:36.150Z,13.10
2019-05-04T02:48:12.251Z,13.10
2019-05-04T02:50:45.971Z,13.00
2019-05-04T02:53:12.016Z,12.90
2019-05-04T02:55:39.150Z,12.90
2019-05-04T02:58:06.385Z,13.00
2019-05-04T03:00:36.290Z,13.00
2019-05-04T03:03:07.292Z,13.00
2019-05-04T03:05:35.866Z,12.90
2019-05-04T03:08:05.320Z,13.00
2019-05-04T03:10:32.273Z,12.90
2019-05-04T03:12:59.179Z,12.90
2019-05-04T03:15:26.852Z,12.80
2019-05-04T03:18:05.362Z,12.90
2019-05-04T03:21:01.209Z,12.80
2019-05-04T03:23:29.641Z,12.80
2019-05-04T03:25:56.667Z,12.80
2019-05-04T03:28:25.388Z,12.80
2019-05-04T03:30:52.472Z,12.80
2019-05-04T03:33:20.267Z,12.80
2019-05-04T03:35:59.164Z,12.70
2019-05-04T03:38:16.636Z,12.70
2019-05-04T03:40:46.183Z,12.80
2019-05-04T03:43:15.891Z,12.80
2019-05-04T03:46:07.754Z,12.80
2019-05-04T03:48:41.236Z,12.80
2019-05-04T03:51:10.853Z,12.80
2019-05-04T03:53:37.788Z,12.80
2019-05-04T03:56:06.279Z,12.80
2019-05-04T03:58:36.125Z,12.80
2019-05-04T04:01:06.041Z,12.80
2019-05-04T04:03:35.497Z,12.80
2019-05-04T04:06:01.390Z,12.90
2019-05-04T04:08:28.340Z,12.80
2019-05-04T04:10:56.459Z,12.80
2019-05-04T04:13:26.040Z,12.70
2019-05-04T04:15:56.444Z,12.80
2019-05-04T04:18:25.595Z,12.60
2019-05-04T04:20:56.617Z,12.60
2019-05-04T04:23:46.653Z,12.50
2019-05-04T04:26:47.893Z,12.50
2019-05-04T04:29:30.384Z,12.50
2019-05-04T04:31:57.372Z,12.50
2019-05-04T04:34:26.023Z,12.40
2019-05-04T04:36:56.315Z,12.40
2019-05-04T04:39:30.383Z,12.40
2019-05-04T04:41:50.856Z,12.40
2019-05-04T04:44:17.882Z,12.30
2019-05-04T04:46:46.503Z,12.30
2019-05-04T04:49:15.545Z,12.20
2019-05-04T04:51:46.230Z,12.20
2019-05-04T04:54:11.948Z,12.20
2019-05-04T04:56:42.001Z,12.00
2019-05-04T04:59:37.798Z,12.10
2019-05-04T05:02:05.542Z,12.10
2019-05-04T05:04:35.118Z,12.00
2019-05-04T05:07:02.166Z,11.90
2019-05-04T05:09:41.411Z,11.90
2019-05-04T05:11:58.138Z,11.80
2019-05-04T05:14:25.616Z,11.70
2019-05-04T05:16:55.042Z,11.70
2019-05-04T05:19:24.232Z,11.60
2019-05-04T05:21:51.092Z,11.60
2019-05-04T05:24:18.035Z,11.50
2019-05-04T05:26:45.598Z,11.60
2019-05-04T05:29:14.936Z,11.60
2019-05-04T05:32:04.523Z,11.40
2019-05-04T05:34:44.434Z,11.40
2019-05-04T05:37:11.847Z,11.30
2019-05-04T05:39:39.051Z,11.40
2019-05-04T05:42:06.391Z,11.40
2019-05-04T05:44:35.925Z,11.50
2019-05-04T05:47:24.132Z,11.50
2019-05-04T05:50:11.196Z,11.50
2019-05-04T05:52:47.835Z,11.40
2019-05-04T05:55:28.130Z,11.30
2019-05-04T05:58:05.049Z,11.30
2019-05-04T06:00:50.376Z,11.30
2019-05-04T06:03:32.297Z,11.20
2019-05-04T06:06:02.228Z,11.30
2019-05-04T06:08:27.152Z,11.30
2019-05-04T06:10:56.787Z,11.30
2019-05-04T06:13:51.235Z,11.20
2019-05-04T06:16:40.892Z,11.20
2019-05-04T06:19:15.125Z,11.10
2019-05-04T06:21:51.187Z,11.10
2019-05-04T06:24:26.827Z,11.20
2019-05-04T06:27:25.996Z,11.10
2019-05-04T06:30:00.583Z,11.10
2019-05-04T06:32:37.872Z,11.00
2019-05-04T06:35:37.788Z,11.00
2019-05-04T06:38:28.816Z,11.00
2019-05-04T06:41:04.467Z,11.00
2019-05-04T06:43:54.438Z,10.90
2019-05-04T06:46:19.432Z,11.00
2019-05-04T06:48:46.475Z,11.10
2019-05-04T06:51:44.760Z,11.00
2019-05-04T06:54:15.272Z,11.10
2019-05-04T06:56:55.916Z,11.10
2019-05-04T06:59:25.464Z,11.10
2019-05-04T07:01:56.740Z,11.10
2019-05-04T07:04:21.744Z,11.00
2019-05-04T07:06:48.740Z,11.10
2019-05-04T07:09:19.507Z,11.10
2019-05-04T07:12:04.015Z,11.10
2019-05-04T07:14:16.197Z,11.00
2019-05-04T07:16:43.155Z,11.10
2019-05-04T07:19:18.102Z,11.10
2019-05-04T07:21:39.268Z,11.00
2019-05-04T07:24:06.572Z,11.00
2019-05-04T07:26:39.442Z,11.10
2019-05-04T07:29:04.720Z,11.10
2019-05-04T07:31:39.291Z,11.10
2019-05-04T07:34:06.714Z,11.00
2019-05-04T07:36:56.379Z,11.00
2019-05-04T07:39:36.948Z,11.10
2019-05-04T07:42:14.648Z,11.00
2019-05-04T07:44:55.081Z,11.10
2019-05-04T07:47:24.971Z,11.10
2019-05-04T07:49:54.465Z,11.10
2019-05-04T07:52:27.195Z,11.10
2019-05-04T07:54:52.147Z,11.20
2019-05-04T07:57:24.743Z,11.10
2019-05-04T07:59:49.511Z,11.10
2019-05-04T08:02:18.003Z,11.10
2019-05-04T08:04:48.456Z,11.20
2019-05-04T08:07:14.420Z,11.20
2019-05-04T08:09:45.706Z,11.20
2019-05-04T08:12:41.886Z,11.20
2019-05-04T08:15:10.286Z,11.30
2019-05-04T08:17:35.000Z,11.20
2019-05-04T08:20:02.791Z,11.20
2019-05-04T08:22:30.719Z,11.20
2019-05-04T08:25:00.975Z,11.30
2019-05-04T08:27:26.851Z,11.20
2019-05-04T08:29:54.824Z,11.10
2019-05-04T08:32:22.432Z,11.20
2019-05-04T08:34:49.417Z,11.10
2019-05-04T08:37:16.735Z,11.10
2019-05-04T08:39:45.460Z,11.10
2019-05-04T08:42:26.296Z,11.20
2019-05-04T08:44:41.571Z,11.10
2019-05-04T08:47:18.428Z,11.10
2019-05-04T08:49:45.692Z,11.20
2019-05-04T08:52:21.769Z,11.20
2019-05-04T08:54:50.894Z,11.20
2019-05-04T08:57:25.831Z,11.20
2019-05-04T08:59:52.975Z,11.20
2019-05-04T09:02:30.557Z,11.40
2019-05-04T09:04:58.901Z,11.40
2019-05-04T09:07:27.643Z,11.50
2019-05-04T09:09:54.902Z,11.50
2019-05-04T09:12:27.890Z,11.50
2019-05-04T09:14:51.727Z,11.60
2019-05-04T09:17:20.074Z,11.50
2019-05-04T09:19:49.119Z,11.60
2019-05-04T09:22:22.376Z,11.70
2019-05-04T09:24:48.689Z,11.70
2019-05-04T09:27:15.187Z,11.70
2019-05-04T09:29:44.645Z,11.80
2019-05-04T09:32:23.429Z,11.80
2019-05-04T09:34:41.357Z,11.90
2019-05-04T09:37:09.140Z,11.90
2019-05-04T09:39:37.896Z,11.90
2019-05-04T09:42:30.782Z,11.90
2019-05-04T09:44:49.740Z,11.90
2019-05-04T09:47:20.359Z,11.90
2019-05-04T09:49:45.780Z,11.90
2019-05-04T09:52:20.660Z,11.90
2019-05-04T09:54:49.826Z,11.90
2019-05-04T09:57:16.704Z,11.90
2019-05-04T09:59:49.273Z,12.00
2019-05-04T10:02:14.504Z,12.00
2019-05-04T10:04:41.776Z,12.00
2019-05-04T10:07:08.648Z,12.00
2019-05-04T10:09:35.731Z,12.10
2019-05-04T10:12:18.303Z,12.00
2019-05-04T10:14:59.760Z,12.00
2019-05-04T10:17:31.509Z,12.00
2019-05-04T10:19:58.468Z,12.00
2019-05-04T10:22:25.916Z,12.00
2019-05-04T10:24:54.516Z,12.10
2019-05-04T10:27:26.995Z,12.10
2019-05-04T10:29:55.643Z,12.00
2019-05-04T10:32:24.154Z,12.00
2019-05-04T10:34:51.495Z,12.00
2019-05-04T10:37:18.664Z,12.00
2019-05-04T10:39:47.482Z,12.00
2019-05-04T10:42:15.030Z,12.10
2019-05-04T10:44:45.113Z,12.10
2019-05-04T10:47:14.188Z,12.20
2019-05-04T10:49:50.564Z,12.20
2019-05-04T10:52:18.167Z,12.20
2019-05-04T10:54:46.476Z,12.30
2019-05-04T10:57:14.593Z,12.40
2019-05-04T10:59:44.583Z,12.20
2019-05-04T11:02:11.671Z,12.20
2019-05-04T11:04:39.560Z,12.30
2019-05-04T11:07:07.461Z,12.40
2019-05-04T11:09:35.979Z,12.40
2019-05-04T11:12:04.969Z,12.30
2019-05-04T11:14:34.868Z,12.30
2019-05-04T11:17:04.546Z,12.40
2019-05-04T11:19:31.405Z,12.30
2019-05-04T11:21:58.295Z,12.30
2019-05-04T11:24:25.411Z,12.40
2019-05-04T11:26:56.468Z,12.40
2019-05-04T11:29:24.577Z,12.40
2019-05-04T11:31:51.836Z,12.40
2019-05-04T11:34:18.960Z,12.40
2019-05-04T11:36:45.919Z,12.40
2019-05-04T11:39:15.319Z,12.40
2019-05-04T11:41:44.180Z,12.50
2019-05-04T11:44:11.459Z,12.50
2019-05-04T11:46:38.455Z,12.60
2019-05-04T11:49:05.445Z,12.60
2019-05-04T11:51:34.542Z,12.70
2019-05-04T11:54:01.479Z,12.60
2019-05-04T11:56:28.695Z,12.50
2019-05-04T11:58:56.816Z,12.50
2019-05-04T12:01:25.294Z,12.50
2019-05-04T12:03:54.695Z,12.60
2019-05-04T12:06:44.069Z,12.60
2019-05-04T12:09:29.380Z,12.60
2019-05-04T12:11:56.560Z,12.70
2019-05-04T12:14:25.207Z,12.70
2019-05-04T12:16:54.489Z,12.80
2019-05-04T12:19:21.259Z,12.90
2019-05-04T12:21:48.248Z,12.90
2019-05-04T12:24:15.394Z,12.90
2019-05-04T12:26:44.430Z,13.00
2019-05-04T12:29:11.892Z,13.20
2019-05-04T12:31:39.288Z,13.20
2019-05-04T12:34:07.784Z,13.30
2019-05-04T12:36:34.767Z,13.20
2019-05-04T12:39:07.376Z,13.30
2019-05-04T12:41:34.795Z,13.40
2019-05-04T12:44:02.429Z,13.40
2019-05-04T12:46:29.715Z,13.30
2019-05-04T12:48:57.063Z,13.20
2019-05-04T12:51:24.782Z,13.20
2019-05-04T12:53:54.934Z,13.20
2019-05-04T12:56:22.407Z,13.10
2019-05-04T12:58:50.209Z,13.10
2019-05-04T13:01:17.412Z,13.30
2019-05-04T13:03:47.796Z,13.40
2019-05-04T13:06:15.363Z,13.40
2019-05-04T13:08:42.800Z,13.50
2019-05-04T13:11:09.825Z,13.50
2019-05-04T13:13:37.356Z,13.50
2019-05-04T13:16:05.340Z,13.50
2019-05-04T13:18:55.259Z,13.50
2019-05-04T13:21:24.873Z,13.60
2019-05-04T13:23:51.935Z,13.60
2019-05-04T13:26:19.558Z,13.60
2019-05-04T13:28:46.562Z,13.50
2019-05-04T13:31:14.615Z,13.40
2019-05-04T13:33:45.002Z,13.40
2019-05-04T13:36:15.426Z,13.30
2019-05-04T13:38:44.559Z,13.20
2019-05-04T13:41:14.596Z,13.10
2019-05-04T13:43:41.435Z,13.10
2019-05-04T13:46:10.152Z,13.10
2019-05-04T13:48:38.299Z,13.10
2019-05-04T13:51:06.549Z,13.00
2019-05-04T13:53:35.864Z,13.00
2019-05-04T13:56:31.419Z,13.00
2019-05-04T13:59:12.270Z,13.00
2019-05-04T14:02:04.301Z,12.90
2019-05-04T14:04:35.149Z,12.90
2019-05-04T14:07:02.036Z,13.00
2019-05-04T14:09:29.304Z,13.10
2019-05-04T14:11:56.688Z,13.20
2019-05-04T14:14:24.811Z,13.30
2019-05-04T14:16:55.155Z,13.30
2019-05-04T14:19:24.326Z,13.40
2019-05-04T14:21:51.517Z,13.50
2019-05-04T14:24:18.815Z,13.50
2019-05-04T14:26:45.787Z,13.60
2019-05-04T14:29:15.957Z,13.50
2019-05-04T14:31:44.307Z,13.60
2019-05-04T14:34:11.443Z,13.60
2019-05-04T14:36:38.460Z,13.60
2019-05-04T14:39:07.871Z,13.70
2019-05-04T14:41:35.741Z,13.70
2019-05-04T14:44:14.874Z,13.60
2019-05-04T14:46:52.787Z,13.60
2019-05-04T14:49:20.513Z,13.60
2019-05-04T14:51:47.394Z,13.70
2019-05-04T14:54:15.147Z,13.70
2019-05-04T14:56:42.539Z,13.70
2019-05-04T14:59:09.563Z,13.40
2019-05-04T15:01:37.051Z,13.30
2019-05-04T15:04:04.195Z,13.20
2019-05-04T15:06:31.191Z,13.00
2019-05-04T15:08:58.203Z,12.90
2019-05-04T15:11:25.359Z,12.90
2019-05-04T15:13:52.504Z,12.90
2019-05-04T15:16:19.647Z,13.10
2019-05-04T15:18:58.956Z,13.20
2019-05-04T15:21:26.180Z,13.20
2019-05-04T15:23:54.653Z,13.30
2019-05-04T15:26:22.168Z,13.30
2019-05-04T15:28:49.351Z,13.40
2019-05-04T15:31:16.631Z,13.40
2019-05-04T15:33:45.118Z,13.40
2019-05-04T15:36:14.146Z,13.40
2019-05-04T15:38:41.435Z,13.50
2019-05-04T15:41:08.582Z,13.50
2019-05-04T15:43:35.634Z,13.50
2019-05-04T15:46:02.859Z,13.50
2019-05-04T15:48:30.247Z,13.50
2019-05-04T15:51:09.484Z,13.50
2019-05-04T15:53:54.894Z,13.50
2019-05-04T15:56:44.800Z,13.40
2019-05-04T15:59:18.411Z,13.40
2019-05-04T16:01:46.067Z,13.40
2019-05-04T16:04:14.966Z,13.40
2019-05-04T16:06:42.116Z,13.50
2019-05-04T16:09:09.424Z,13.50
2019-05-04T16:11:36.524Z,13.40
2019-05-04T16:14:05.156Z,13.40
2019-05-04T16:16:34.053Z,13.40
2019-05-04T16:19:01.320Z,13.30
2019-05-04T16:21:28.459Z,13.20
2019-05-04T16:23:55.696Z,13.10
2019-05-04T16:26:24.506Z,12.90
2019-05-04T16:28:51.575Z,12.80
2019-05-04T16:31:20.384Z,12.80
2019-05-04T16:33:47.501Z,12.80
2019-05-04T16:36:14.783Z,12.80
2019-05-04T16:38:44.860Z,12.70
2019-05-04T16:41:12.007Z,12.70
2019-05-04T16:43:40.171Z,12.70
2019-05-04T16:46:07.288Z,12.70
2019-05-04T16:48:34.799Z,12.70
2019-05-04T16:51:11.668Z,12.70
2019-05-04T16:53:40.932Z,12.60
2019-05-04T16:56:08.573Z,12.50
2019-05-04T16:58:36.483Z,12.60
2019-05-04T17:01:26.816Z,12.50
2019-05-04T17:03:55.828Z,12.50
2019-05-04T17:06:24.333Z,12.50
2019-05-04T17:08:51.950Z,12.60
2019-05-04T17:11:20.424Z,12.50
2019-05-04T17:13:47.675Z,12.50
2019-05-04T17:16:16.930Z,12.50
2019-05-04T17:18:44.335Z,12.60
2019-05-04T17:21:15.470Z,12.50
2019-05-04T17:23:45.511Z,12.40
2019-05-04T17:26:36.536Z,12.50
2019-05-04T17:29:06.955Z,12.50
2019-05-04T17:31:34.247Z,12.40
2019-05-04T17:34:04.426Z,12.30
2019-05-04T17:36:33.100Z,12.30
2019-05-04T17:39:00.496Z,12.40
2019-05-04T17:41:47.595Z,12.40
2019-05-04T17:44:34.665Z,12.40
2019-05-04T17:47:05.257Z,12.40
2019-05-04T17:49:32.555Z,12.30
2019-05-04T17:51:59.863Z,12.30
2019-05-04T17:54:26.783Z,12.20
2019-05-04T17:56:54.918Z,12.30
2019-05-04T17:59:23.492Z,12.20
2019-05-04T18:02:16.360Z,12.20
2019-05-04T18:04:46.899Z,12.10
2019-05-04T18:07:14.870Z,12.10
2019-05-04T18:09:42.117Z,12.00
2019-05-04T18:12:16.620Z,11.90
2019-05-04T18:14:58.647Z,11.90
2019-05-04T18:17:48.255Z,11.90
2019-05-04T18:20:15.450Z,11.90
2019-05-04T18:22:42.675Z,11.90
2019-05-04T18:25:10.185Z,11.90
2019-05-04T18:27:37.684Z,11.90
2019-05-04T18:30:05.604Z,11.80
2019-05-04T18:32:34.443Z,11.80
2019-05-04T18:35:01.748Z,11.80
2019-05-04T18:37:29.103Z,11.70
2019-05-04T18:39:56.305Z,11.70
2019-05-04T18:42:25.363Z,11.70
2019-05-04T18:45:04.972Z,11.70
2019-05-04T18:47:44.629Z,11.70
2019-05-04T18:50:15.102Z,11.60
2019-05-04T18:52:44.207Z,11.70
2019-05-04T18:55:11.527Z,11.50
2019-05-04T18:57:39.412Z,11.70
2019-05-04T19:00:07.186Z,11.60
2019-05-04T19:02:34.341Z,11.60
2019-05-04T19:05:01.836Z,11.50
2019-05-04T19:07:58.950Z,11.60
2019-05-04T19:10:17.755Z,11.60
2019-05-04T19:12:45.195Z,11.50
2019-05-04T19:15:14.625Z,11.50
2019-05-04T19:17:41.843Z,11.40
2019-05-04T19:20:09.291Z,11.30
2019-05-04T19:22:37.243Z,11.30
2019-05-04T19:25:15.414Z,11.30
2019-05-04T19:27:44.685Z,11.30
2019-05-04T19:30:15.312Z,11.40
2019-05-04T19:32:42.252Z,11.30
2019-05-04T19:35:10.147Z,11.20
2019-05-04T19:37:37.577Z,11.30
2019-05-04T19:40:04.858Z,11.20
2019-05-04T19:43:01.297Z,11.30
2019-05-04T19:46:00.257Z,11.30
2019-05-04T19:48:30.067Z,11.10
2019-05-04T19:50:58.175Z,11.10
2019-05-04T19:53:25.431Z,11.20
2019-05-04T19:55:54.421Z,11.20
2019-05-04T19:58:21.393Z,11.20
2019-05-04T20:00:49.445Z,11.20
2019-05-04T20:03:16.507Z,11.20
2019-05-04T20:05:44.372Z,11.10
2019-05-04T20:08:25.915Z,11.20
2019-05-04T20:11:04.714Z,11.20
2019-05-04T20:13:32.103Z,11.20
2019-05-04T20:15:59.127Z,11.20
2019-05-04T20:18:26.271Z,11.10
2019-05-04T20:20:55.461Z,11.10
2019-05-04T20:23:24.910Z,11.20
2019-05-04T20:25:51.610Z,11.10
2019-05-04T20:28:18.736Z,11.10
2019-05-04T20:30:45.824Z,11.10
2019-05-04T20:33:15.144Z,11.10
2019-05-04T20:35:45.849Z,11.10
2019-05-04T20:38:11.367Z,11.10
2019-05-04T20:40:38.675Z,11.10
2019-05-04T20:43:08.984Z,11.20
2019-05-04T20:45:57.328Z,11.10
2019-05-04T20:48:48.235Z,11.20
2019-05-04T20:51:15.234Z,11.10
2019-05-04T20:53:50.314Z,11.10
2019-05-04T20:56:17.772Z,11.10
2019-05-04T20:58:45.219Z,11.00
2019-05-04T21:01:15.606Z,11.00
2019-05-04T21:04:02.311Z,11.00
2019-05-04T21:06:37.495Z,11.00
2019-05-04T21:09:05.304Z,11.00
2019-05-04T21:11:32.298Z,11.00
2019-05-04T21:13:59.251Z,11.00
2019-05-04T21:16:28.237Z,11.00
2019-05-04T21:19:04.751Z,10.90
2019-05-04T21:21:40.091Z,10.90
2019-05-04T21:24:07.561Z,10.90
2019-05-04T21:26:34.699Z,11.00
2019-05-04T21:29:04.275Z,10.80
2019-05-04T21:31:31.535Z,10.90
2019-05-04T21:33:58.764Z,11.00
2019-05-04T21:36:26.951Z,10.90
2019-05-04T21:38:54.037Z,10.80
2019-05-04T21:41:21.398Z,10.90
2019-05-04T21:43:55.211Z,10.90
2019-05-04T21:46:36.712Z,10.90
2019-05-04T21:49:34.436Z,10.90
2019-05-04T21:52:01.815Z,10.90
2019-05-04T21:54:29.023Z,11.00
2019-05-04T21:56:56.239Z,10.90
2019-05-04T21:59:24.964Z,10.80
2019-05-04T22:02:25.452Z,10.80
2019-05-04T22:04:54.980Z,10.90
2019-05-04T22:07:22.311Z,10.80
2019-05-04T22:09:49.735Z,10.70
2019-05-04T22:12:17.140Z,10.70
2019-05-04T22:14:44.803Z,10.70
2019-05-04T22:17:12.899Z,10.80
2019-05-04T22:19:41.191Z,10.80
2019-05-04T22:22:08.191Z,10.80
2019-05-04T22:24:35.303Z,10.70
2019-05-04T22:27:02.828Z,10.60
2019-05-04T22:29:29.844Z,10.70
2019-05-04T22:31:57.000Z,10.70
2019-05-04T22:34:24.123Z,10.70
2019-05-04T22:37:14.780Z,10.70
2019-05-04T22:39:42.900Z,10.60
2019-05-04T22:42:10.331Z,10.60
2019-05-04T22:44:37.324Z,10.70
2019-05-04T22:47:05.686Z,10.70
2019-05-04T22:49:32.723Z,10.70
2019-05-04T22:52:11.790Z,10.60
2019-05-04T22:54:48.888Z,10.60
2019-05-04T22:57:21.671Z,10.60
2019-05-04T22:59:55.715Z,10.60
2019-05-04T23:02:27.751Z,10.60
2019-05-04T23:04:57.697Z,10.60
2019-05-04T23:07:25.658Z,10.60
2019-05-04T23:09:54.729Z,10.50
2019-05-04T23:12:21.808Z,10.60
2019-05-04T23:14:49.232Z,10.50
2019-05-04T23:17:16.371Z,10.50
2019-05-04T23:19:45.117Z,10.50
2019-05-04T23:22:28.085Z,10.60
2019-05-04T23:24:56.090Z,10.60
2019-05-04T23:27:24.726Z,10.50
2019-05-04T23:29:54.396Z,10.60
2019-05-04T23:32:23.915Z,10.60
2019-05-04T23:34:51.003Z,10.50
2019-05-04T23:37:18.132Z,10.50
2019-05-04T23:39:45.264Z,10.50
2019-05-04T23:42:12.436Z,10.60
2019-05-04T23:44:39.703Z,10.50
2019-05-04T23:47:16.569Z,10.50
2019-05-04T23:49:44.501Z,10.40
2019-05-04T23:52:11.665Z,10.50
2019-05-04T23:54:38.647Z,10.40
2019-05-04T23:57:06.495Z,10.50
2019-05-04T23:59:34.376Z,10.50
